sensor_id;sensor_type;location;lat;lon;timestamp;P1;durP1;ratioP1;P2;durP2;ratioP2
57800;SDS011;43627;42.728;23.256;2023-06-22T00:01:18;9.25;;;6.35;;
57800;SDS011;43627;42.728;23.256;2023-06-22T00:03:46;10.20;;;6.68;;
57800;SDS011;43627;42.728;23.256;2023-06-22T00:06:13;8.77;;;5.60;;
57800;SDS011;43627;42.728;23.256;2023-06-22T00:08:40;12.00;;;6.95;;
57800;SDS011;43627;42.728;23.256;2023-06-22T00:11:07;10.57;;;7.05;;
57800;SDS011;43627;42.728;23.256;2023-06-22T00:13:34;7.68;;;5.57;;
57800;SDS011;43627;42.728;23.256;2023-06-22T00:16:01;9.68;;;6.93;;
57800;SDS011;43627;42.728;23.256;2023-06-22T00:18:27;8.40;;;5.93;;
57800;SDS011;43627;42.728;23.256;2023-06-22T00:20:57;7.63;;;5.82;;
57800;SDS011;43627;42.728;23.256;2023-06-22T00:23:25;10.18;;;5.90;;
57800;SDS011;43627;42.728;23.256;2023-06-22T00:25:52;9.02;;;6.65;;
57800;SDS011;43627;42.728;23.256;2023-06-22T00:28:19;8.63;;;6.72;;
57800;SDS011;43627;42.728;23.256;2023-06-22T00:30:47;10.52;;;7.25;;
57800;SDS011;43627;42.728;23.256;2023-06-22T00:33:15;9.02;;;6.75;;
57800;SDS011;43627;42.728;23.256;2023-06-22T00:35:42;10.40;;;6.53;;
57800;SDS011;43627;42.728;23.256;2023-06-22T00:38:09;10.45;;;7.63;;
57800;SDS011;43627;42.728;23.256;2023-06-22T00:40:36;12.35;;;7.18;;
57800;SDS011;43627;42.728;23.256;2023-06-22T00:43:03;11.52;;;7.10;;
57800;SDS011;43627;42.728;23.256;2023-06-22T00:45:31;8.73;;;6.18;;
57800;SDS011;43627;42.728;23.256;2023-06-22T00:47:58;9.82;;;6.82;;
57800;SDS011;43627;42.728;23.256;2023-06-22T00:50:27;11.00;;;7.05;;
57800;SDS011;43627;42.728;23.256;2023-06-22T00:53:00;11.43;;;7.75;;
57800;SDS011;43627;42.728;23.256;2023-06-22T00:55:36;10.13;;;7.30;;
57800;SDS011;43627;42.728;23.256;2023-06-22T00:58:05;11.15;;;6.93;;
57800;SDS011;43627;42.728;23.256;2023-06-22T01:00:37;10.73;;;6.95;;
57800;SDS011;43627;42.728;23.256;2023-06-22T01:03:05;9.93;;;7.05;;
57800;SDS011;43627;42.728;23.256;2023-06-22T01:05:36;16.20;;;7.00;;
57800;SDS011;43627;42.728;23.256;2023-06-22T01:11:30;12.65;;;7.15;;
57800;SDS011;43627;42.728;23.256;2023-06-22T01:16:35;12.82;;;7.45;;
57800;SDS011;43627;42.728;23.256;2023-06-22T01:19:25;11.88;;;7.45;;
57800;SDS011;43627;42.728;23.256;2023-06-22T01:22:01;13.93;;;7.90;;
57800;SDS011;43627;42.728;23.256;2023-06-22T01:24:32;13.38;;;8.43;;
57800;SDS011;43627;42.728;23.256;2023-06-22T01:30:03;13.38;;;7.85;;
57800;SDS011;43627;42.728;23.256;2023-06-22T01:32:33;10.32;;;6.93;;
57800;SDS011;43627;42.728;23.256;2023-06-22T01:35:03;12.45;;;7.00;;
57800;SDS011;43627;42.728;23.256;2023-06-22T01:37:32;8.93;;;6.78;;
57800;SDS011;43627;42.728;23.256;2023-06-22T01:40:01;12.20;;;7.57;;
57800;SDS011;43627;42.728;23.256;2023-06-22T01:42:31;9.55;;;6.50;;
57800;SDS011;43627;42.728;23.256;2023-06-22T01:44:58;10.30;;;6.85;;
57800;SDS011;43627;42.728;23.256;2023-06-22T01:47:26;9.18;;;7.00;;
57800;SDS011;43627;42.728;23.256;2023-06-22T01:49:55;10.27;;;7.38;;
57800;SDS011;43627;42.728;23.256;2023-06-22T01:52:22;12.88;;;7.35;;
57800;SDS011;43627;42.728;23.256;2023-06-22T01:54:49;10.77;;;6.85;;
57800;SDS011;43627;42.728;23.256;2023-06-22T01:57:16;9.55;;;6.38;;
57800;SDS011;43627;42.728;23.256;2023-06-22T02:02:24;9.27;;;6.70;;
57800;SDS011;43627;42.728;23.256;2023-06-22T02:07:27;12.02;;;7.72;;
57800;SDS011;43627;42.728;23.256;2023-06-22T02:09:58;9.85;;;6.88;;
57800;SDS011;43627;42.728;23.256;2023-06-22T02:12:27;10.13;;;7.07;;
57800;SDS011;43627;42.728;23.256;2023-06-22T02:14:56;11.80;;;6.85;;
57800;SDS011;43627;42.728;23.256;2023-06-22T02:17:24;10.10;;;7.22;;
57800;SDS011;43627;42.728;23.256;2023-06-22T02:19:52;16.33;;;8.25;;
57800;SDS011;43627;42.728;23.256;2023-06-22T02:22:19;10.32;;;7.65;;
57800;SDS011;43627;42.728;23.256;2023-06-22T02:24:46;13.30;;;7.93;;
57800;SDS011;43627;42.728;23.256;2023-06-22T02:27:13;11.23;;;7.38;;
57800;SDS011;43627;42.728;23.256;2023-06-22T02:29:40;8.95;;;6.85;;
57800;SDS011;43627;42.728;23.256;2023-06-22T02:32:06;9.30;;;6.35;;
57800;SDS011;43627;42.728;23.256;2023-06-22T02:34:34;9.93;;;6.40;;
57800;SDS011;43627;42.728;23.256;2023-06-22T02:37:01;10.43;;;7.18;;
57800;SDS011;43627;42.728;23.256;2023-06-22T02:39:29;10.63;;;7.15;;
57800;SDS011;43627;42.728;23.256;2023-06-22T02:41:55;11.40;;;6.63;;
57800;SDS011;43627;42.728;23.256;2023-06-22T02:44:22;9.60;;;6.78;;
57800;SDS011;43627;42.728;23.256;2023-06-22T02:46:49;13.93;;;7.63;;
57800;SDS011;43627;42.728;23.256;2023-06-22T02:49:16;10.75;;;7.65;;
57800;SDS011;43627;42.728;23.256;2023-06-22T02:51:47;10.88;;;7.60;;
57800;SDS011;43627;42.728;23.256;2023-06-22T02:54:14;15.85;;;7.47;;
57800;SDS011;43627;42.728;23.256;2023-06-22T02:56:42;8.70;;;6.45;;
57800;SDS011;43627;42.728;23.256;2023-06-22T02:59:12;12.27;;;7.90;;
57800;SDS011;43627;42.728;23.256;2023-06-22T03:01:39;10.73;;;7.82;;
57800;SDS011;43627;42.728;23.256;2023-06-22T03:04:07;9.43;;;7.30;;
57800;SDS011;43627;42.728;23.256;2023-06-22T03:06:34;10.88;;;7.47;;
57800;SDS011;43627;42.728;23.256;2023-06-22T03:09:02;12.95;;;7.38;;
57800;SDS011;43627;42.728;23.256;2023-06-22T03:11:32;9.73;;;6.75;;
57800;SDS011;43627;42.728;23.256;2023-06-22T03:13:59;8.05;;;6.18;;
57800;SDS011;43627;42.728;23.256;2023-06-22T03:16:28;9.48;;;6.25;;
57800;SDS011;43627;42.728;23.256;2023-06-22T03:18:55;10.38;;;5.72;;
57800;SDS011;43627;42.728;23.256;2023-06-22T03:21:23;8.48;;;5.88;;
57800;SDS011;43627;42.728;23.256;2023-06-22T03:23:50;8.23;;;5.82;;
57800;SDS011;43627;42.728;23.256;2023-06-22T03:26:17;17.38;;;6.22;;
57800;SDS011;43627;42.728;23.256;2023-06-22T03:28:44;14.15;;;6.22;;
57800;SDS011;43627;42.728;23.256;2023-06-22T03:31:11;8.68;;;5.90;;
57800;SDS011;43627;42.728;23.256;2023-06-22T03:33:38;9.82;;;6.32;;
57800;SDS011;43627;42.728;23.256;2023-06-22T03:36:05;8.50;;;5.38;;
57800;SDS011;43627;42.728;23.256;2023-06-22T03:38:32;8.63;;;5.25;;
57800;SDS011;43627;42.728;23.256;2023-06-22T03:41:08;8.13;;;5.57;;
57800;SDS011;43627;42.728;23.256;2023-06-22T03:43:35;9.15;;;5.40;;
57800;SDS011;43627;42.728;23.256;2023-06-22T03:46:06;10.75;;;6.32;;
57800;SDS011;43627;42.728;23.256;2023-06-22T03:48:35;8.05;;;4.90;;
57800;SDS011;43627;42.728;23.256;2023-06-22T03:51:02;5.97;;;4.18;;
57800;SDS011;43627;42.728;23.256;2023-06-22T03:53:29;8.55;;;4.90;;
57800;SDS011;43627;42.728;23.256;2023-06-22T03:55:56;7.25;;;5.22;;
57800;SDS011;43627;42.728;23.256;2023-06-22T03:58:23;6.57;;;4.90;;
57800;SDS011;43627;42.728;23.256;2023-06-22T04:00:51;7.40;;;5.13;;
57800;SDS011;43627;42.728;23.256;2023-06-22T04:03:19;9.15;;;5.20;;
57800;SDS011;43627;42.728;23.256;2023-06-22T04:05:46;6.03;;;4.65;;
57800;SDS011;43627;42.728;23.256;2023-06-22T04:08:14;9.95;;;5.28;;
57800;SDS011;43627;42.728;23.256;2023-06-22T04:10:41;8.70;;;5.03;;
57800;SDS011;43627;42.728;23.256;2023-06-22T04:13:09;12.00;;;5.85;;
57800;SDS011;43627;42.728;23.256;2023-06-22T04:15:35;6.80;;;5.20;;
57800;SDS011;43627;42.728;23.256;2023-06-22T04:18:02;5.70;;;4.43;;
57800;SDS011;43627;42.728;23.256;2023-06-22T04:20:30;10.32;;;5.68;;
57800;SDS011;43627;42.728;23.256;2023-06-22T04:23:00;7.80;;;5.70;;
57800;SDS011;43627;42.728;23.256;2023-06-22T04:25:27;7.80;;;4.72;;
57800;SDS011;43627;42.728;23.256;2023-06-22T04:27:54;8.18;;;5.18;;
57800;SDS011;43627;42.728;23.256;2023-06-22T04:30:20;8.68;;;5.47;;
57800;SDS011;43627;42.728;23.256;2023-06-22T04:32:47;6.53;;;5.03;;
57800;SDS011;43627;42.728;23.256;2023-06-22T04:35:23;6.82;;;5.10;;
57800;SDS011;43627;42.728;23.256;2023-06-22T04:37:55;10.40;;;5.93;;
57800;SDS011;43627;42.728;23.256;2023-06-22T04:40:24;8.30;;;5.85;;
57800;SDS011;43627;42.728;23.256;2023-06-22T04:42:52;7.32;;;5.72;;
57800;SDS011;43627;42.728;23.256;2023-06-22T04:45:20;7.57;;;5.63;;
57800;SDS011;43627;42.728;23.256;2023-06-22T04:47:47;9.38;;;6.10;;
57800;SDS011;43627;42.728;23.256;2023-06-22T04:50:15;8.98;;;5.93;;
57800;SDS011;43627;42.728;23.256;2023-06-22T04:52:44;7.18;;;5.05;;
57800;SDS011;43627;42.728;23.256;2023-06-22T04:55:12;8.80;;;5.20;;
57800;SDS011;43627;42.728;23.256;2023-06-22T04:57:41;11.50;;;5.63;;
57800;SDS011;43627;42.728;23.256;2023-06-22T05:00:11;8.90;;;5.50;;
57800;SDS011;43627;42.728;23.256;2023-06-22T05:02:39;7.50;;;5.20;;
57800;SDS011;43627;42.728;23.256;2023-06-22T05:05:07;8.18;;;5.22;;
57800;SDS011;43627;42.728;23.256;2023-06-22T05:07:35;8.95;;;6.10;;
57800;SDS011;43627;42.728;23.256;2023-06-22T05:10:03;7.10;;;5.65;;
57800;SDS011;43627;42.728;23.256;2023-06-22T05:12:31;6.95;;;5.10;;
57800;SDS011;43627;42.728;23.256;2023-06-22T05:14:58;7.93;;;5.43;;
57800;SDS011;43627;42.728;23.256;2023-06-22T05:17:25;12.82;;;5.82;;
57800;SDS011;43627;42.728;23.256;2023-06-22T05:19:52;8.77;;;5.43;;
57800;SDS011;43627;42.728;23.256;2023-06-22T05:22:19;9.55;;;5.57;;
57800;SDS011;43627;42.728;23.256;2023-06-22T05:24:49;11.15;;;6.15;;
57800;SDS011;43627;42.728;23.256;2023-06-22T05:27:16;8.65;;;6.53;;
57800;SDS011;43627;42.728;23.256;2023-06-22T05:29:43;6.53;;;5.03;;
57800;SDS011;43627;42.728;23.256;2023-06-22T05:32:10;8.95;;;5.85;;
57800;SDS011;43627;42.728;23.256;2023-06-22T05:34:37;6.80;;;5.68;;
57800;SDS011;43627;42.728;23.256;2023-06-22T05:37:05;8.95;;;4.38;;
57800;SDS011;43627;42.728;23.256;2023-06-22T05:39:32;7.60;;;4.82;;
57800;SDS011;43627;42.728;23.256;2023-06-22T05:41:59;5.88;;;4.53;;
57800;SDS011;43627;42.728;23.256;2023-06-22T05:44:25;8.18;;;4.97;;
57800;SDS011;43627;42.728;23.256;2023-06-22T05:46:52;16.83;;;5.57;;
57800;SDS011;43627;42.728;23.256;2023-06-22T05:49:21;6.53;;;5.32;;
57800;SDS011;43627;42.728;23.256;2023-06-22T05:51:48;8.00;;;5.25;;
57800;SDS011;43627;42.728;23.256;2023-06-22T05:54:15;10.55;;;6.25;;
57800;SDS011;43627;42.728;23.256;2023-06-22T05:56:44;14.25;;;5.85;;
57800;SDS011;43627;42.728;23.256;2023-06-22T05:59:11;11.60;;;5.78;;
57800;SDS011;43627;42.728;23.256;2023-06-22T06:01:38;6.90;;;5.05;;
57800;SDS011;43627;42.728;23.256;2023-06-22T06:04:06;8.05;;;5.53;;
57800;SDS011;43627;42.728;23.256;2023-06-22T06:06:35;10.25;;;6.47;;
57800;SDS011;43627;42.728;23.256;2023-06-22T06:09:04;15.75;;;7.18;;
57800;SDS011;43627;42.728;23.256;2023-06-22T06:11:31;8.43;;;6.55;;
57800;SDS011;43627;42.728;23.256;2023-06-22T06:13:57;8.18;;;6.00;;
57800;SDS011;43627;42.728;23.256;2023-06-22T06:16:24;9.32;;;6.13;;
57800;SDS011;43627;42.728;23.256;2023-06-22T06:18:51;8.93;;;5.97;;
57800;SDS011;43627;42.728;23.256;2023-06-22T06:21:22;12.10;;;6.93;;
57800;SDS011;43627;42.728;23.256;2023-06-22T06:23:49;10.07;;;6.30;;
57800;SDS011;43627;42.728;23.256;2023-06-22T06:26:16;8.63;;;7.05;;
57800;SDS011;43627;42.728;23.256;2023-06-22T06:28:43;9.90;;;6.30;;
57800;SDS011;43627;42.728;23.256;2023-06-22T06:31:10;10.40;;;7.45;;
57800;SDS011;43627;42.728;23.256;2023-06-22T06:33:38;8.90;;;6.45;;
57800;SDS011;43627;42.728;23.256;2023-06-22T06:36:05;13.13;;;6.60;;
57800;SDS011;43627;42.728;23.256;2023-06-22T06:38:32;13.85;;;7.38;;
57800;SDS011;43627;42.728;23.256;2023-06-22T06:40:58;9.55;;;6.65;;
57800;SDS011;43627;42.728;23.256;2023-06-22T06:43:25;13.50;;;7.60;;
57800;SDS011;43627;42.728;23.256;2023-06-22T06:45:52;9.73;;;6.80;;
57800;SDS011;43627;42.728;23.256;2023-06-22T06:48:19;10.30;;;6.30;;
57800;SDS011;43627;42.728;23.256;2023-06-22T06:50:46;7.93;;;6.63;;
57800;SDS011;43627;42.728;23.256;2023-06-22T06:53:13;8.52;;;6.55;;
57800;SDS011;43627;42.728;23.256;2023-06-22T06:55:40;10.52;;;7.40;;
57800;SDS011;43627;42.728;23.256;2023-06-22T06:58:07;12.73;;;6.72;;
57800;SDS011;43627;42.728;23.256;2023-06-22T07:00:39;7.25;;;5.50;;
57800;SDS011;43627;42.728;23.256;2023-06-22T07:03:06;8.77;;;6.00;;
57800;SDS011;43627;42.728;23.256;2023-06-22T07:05:35;7.03;;;5.72;;
57800;SDS011;43627;42.728;23.256;2023-06-22T07:08:01;10.23;;;6.05;;
57800;SDS011;43627;42.728;23.256;2023-06-22T07:10:28;9.95;;;5.93;;
57800;SDS011;43627;42.728;23.256;2023-06-22T07:12:56;10.80;;;5.35;;
57800;SDS011;43627;42.728;23.256;2023-06-22T07:15:23;7.88;;;5.53;;
57800;SDS011;43627;42.728;23.256;2023-06-22T07:17:50;7.65;;;4.70;;
57800;SDS011;43627;42.728;23.256;2023-06-22T07:20:17;6.32;;;4.43;;
57800;SDS011;43627;42.728;23.256;2023-06-22T07:22:45;6.75;;;5.05;;
57800;SDS011;43627;42.728;23.256;2023-06-22T07:25:12;7.35;;;5.95;;
57800;SDS011;43627;42.728;23.256;2023-06-22T07:30:12;7.90;;;5.00;;
57800;SDS011;43627;42.728;23.256;2023-06-22T07:32:40;7.35;;;5.72;;
57800;SDS011;43627;42.728;23.256;2023-06-22T07:35:06;6.68;;;5.07;;
57800;SDS011;43627;42.728;23.256;2023-06-22T07:37:33;8.10;;;5.38;;
57800;SDS011;43627;42.728;23.256;2023-06-22T07:40:01;7.15;;;5.15;;
57800;SDS011;43627;42.728;23.256;2023-06-22T07:42:32;7.28;;;5.75;;
57800;SDS011;43627;42.728;23.256;2023-06-22T07:44:59;6.72;;;4.80;;
57800;SDS011;43627;42.728;23.256;2023-06-22T07:47:27;8.45;;;5.25;;
57800;SDS011;43627;42.728;23.256;2023-06-22T07:49:55;7.88;;;6.18;;
57800;SDS011;43627;42.728;23.256;2023-06-22T07:52:24;8.05;;;5.93;;
57800;SDS011;43627;42.728;23.256;2023-06-22T07:54:54;9.63;;;6.10;;
57800;SDS011;43627;42.728;23.256;2023-06-22T07:57:21;7.32;;;5.85;;
57800;SDS011;43627;42.728;23.256;2023-06-22T07:59:48;11.77;;;6.28;;
57800;SDS011;43627;42.728;23.256;2023-06-22T08:02:15;10.88;;;7.47;;
57800;SDS011;43627;42.728;23.256;2023-06-22T08:04:42;7.32;;;5.60;;
57800;SDS011;43627;42.728;23.256;2023-06-22T08:07:08;8.07;;;6.28;;
57800;SDS011;43627;42.728;23.256;2023-06-22T08:09:35;7.78;;;5.95;;
57800;SDS011;43627;42.728;23.256;2023-06-22T08:12:03;8.85;;;6.55;;
57800;SDS011;43627;42.728;23.256;2023-06-22T08:14:30;9.93;;;6.45;;
57800;SDS011;43627;42.728;23.256;2023-06-22T08:16:57;8.40;;;6.35;;
57800;SDS011;43627;42.728;23.256;2023-06-22T08:19:23;7.75;;;5.93;;
57800;SDS011;43627;42.728;23.256;2023-06-22T08:21:50;7.63;;;6.43;;
57800;SDS011;43627;42.728;23.256;2023-06-22T08:24:17;10.27;;;6.10;;
57800;SDS011;43627;42.728;23.256;2023-06-22T08:26:43;13.73;;;6.05;;
57800;SDS011;43627;42.728;23.256;2023-06-22T08:29:10;10.95;;;6.25;;
57800;SDS011;43627;42.728;23.256;2023-06-22T08:31:37;7.90;;;6.10;;
57800;SDS011;43627;42.728;23.256;2023-06-22T08:34:04;8.77;;;6.40;;
57800;SDS011;43627;42.728;23.256;2023-06-22T08:36:30;7.97;;;5.75;;
57800;SDS011;43627;42.728;23.256;2023-06-22T08:39:01;7.38;;;5.32;;
57800;SDS011;43627;42.728;23.256;2023-06-22T08:41:29;8.60;;;6.75;;
57800;SDS011;43627;42.728;23.256;2023-06-22T08:43:57;8.77;;;5.78;;
57800;SDS011;43627;42.728;23.256;2023-06-22T08:46:24;7.35;;;5.53;;
57800;SDS011;43627;42.728;23.256;2023-06-22T08:48:58;5.78;;;5.18;;
57800;SDS011;43627;42.728;23.256;2023-06-22T08:51:26;7.10;;;4.95;;
57800;SDS011;43627;42.728;23.256;2023-06-22T08:53:53;7.43;;;5.38;;
57800;SDS011;43627;42.728;23.256;2023-06-22T08:56:19;8.70;;;5.75;;
57800;SDS011;43627;42.728;23.256;2023-06-22T08:58:46;9.00;;;5.13;;
57800;SDS011;43627;42.728;23.256;2023-06-22T09:01:13;6.55;;;5.40;;
57800;SDS011;43627;42.728;23.256;2023-06-22T09:03:41;8.20;;;5.88;;
57800;SDS011;43627;42.728;23.256;2023-06-22T09:06:09;6.85;;;5.75;;
57800;SDS011;43627;42.728;23.256;2023-06-22T09:08:36;6.07;;;5.15;;
57800;SDS011;43627;42.728;23.256;2023-06-22T09:11:03;7.38;;;4.90;;
57800;SDS011;43627;42.728;23.256;2023-06-22T09:13:30;7.20;;;4.97;;
57800;SDS011;43627;42.728;23.256;2023-06-22T09:15:58;8.25;;;5.80;;
57800;SDS011;43627;42.728;23.256;2023-06-22T09:18:24;6.97;;;5.32;;
57800;SDS011;43627;42.728;23.256;2023-06-22T09:20:51;6.55;;;4.95;;
57800;SDS011;43627;42.728;23.256;2023-06-22T09:23:18;8.02;;;5.63;;
57800;SDS011;43627;42.728;23.256;2023-06-22T09:25:45;6.13;;;4.65;;
57800;SDS011;43627;42.728;23.256;2023-06-22T09:28:14;7.03;;;5.85;;
57800;SDS011;43627;42.728;23.256;2023-06-22T09:30:42;6.65;;;4.95;;
57800;SDS011;43627;42.728;23.256;2023-06-22T09:33:11;6.45;;;4.95;;
57800;SDS011;43627;42.728;23.256;2023-06-22T09:35:37;7.07;;;5.07;;
57800;SDS011;43627;42.728;23.256;2023-06-22T09:38:05;5.22;;;4.47;;
57800;SDS011;43627;42.728;23.256;2023-06-22T09:40:31;5.47;;;4.82;;
57800;SDS011;43627;42.728;23.256;2023-06-22T09:43:01;6.55;;;5.20;;
57800;SDS011;43627;42.728;23.256;2023-06-22T09:45:28;8.45;;;5.90;;
57800;SDS011;43627;42.728;23.256;2023-06-22T09:47:55;5.85;;;5.25;;
57800;SDS011;43627;42.728;23.256;2023-06-22T09:50:22;8.30;;;6.20;;
57800;SDS011;43627;42.728;23.256;2023-06-22T09:52:48;6.13;;;5.20;;
57800;SDS011;43627;42.728;23.256;2023-06-22T09:55:21;6.28;;;5.20;;
57800;SDS011;43627;42.728;23.256;2023-06-22T09:57:51;7.50;;;5.22;;
57800;SDS011;43627;42.728;23.256;2023-06-22T10:00:19;11.35;;;6.15;;
57800;SDS011;43627;42.728;23.256;2023-06-22T10:02:46;11.80;;;5.45;;
57800;SDS011;43627;42.728;23.256;2023-06-22T10:05:14;6.75;;;4.80;;
57800;SDS011;43627;42.728;23.256;2023-06-22T10:07:41;7.10;;;5.57;;
57800;SDS011;43627;42.728;23.256;2023-06-22T10:10:11;8.20;;;5.45;;
57800;SDS011;43627;42.728;23.256;2023-06-22T10:12:42;6.03;;;5.05;;
57800;SDS011;43627;42.728;23.256;2023-06-22T10:15:13;5.47;;;4.68;;
57800;SDS011;43627;42.728;23.256;2023-06-22T10:17:42;6.22;;;4.72;;
57800;SDS011;43627;42.728;23.256;2023-06-22T10:20:09;6.00;;;5.40;;
57800;SDS011;43627;42.728;23.256;2023-06-22T10:22:43;5.35;;;4.65;;
57800;SDS011;43627;42.728;23.256;2023-06-22T10:25:12;4.97;;;4.45;;
57800;SDS011;43627;42.728;23.256;2023-06-22T10:27:39;5.72;;;4.43;;
57800;SDS011;43627;42.728;23.256;2023-06-22T10:30:09;7.55;;;5.38;;
57800;SDS011;43627;42.728;23.256;2023-06-22T10:32:39;7.68;;;5.40;;
57800;SDS011;43627;42.728;23.256;2023-06-22T10:35:07;7.40;;;4.82;;
57800;SDS011;43627;42.728;23.256;2023-06-22T10:37:35;6.22;;;4.22;;
57800;SDS011;43627;42.728;23.256;2023-06-22T10:40:02;7.60;;;5.40;;
57800;SDS011;43627;42.728;23.256;2023-06-22T10:42:30;6.22;;;4.53;;
57800;SDS011;43627;42.728;23.256;2023-06-22T10:44:57;6.25;;;5.00;;
57800;SDS011;43627;42.728;23.256;2023-06-22T10:47:24;5.28;;;4.78;;
57800;SDS011;43627;42.728;23.256;2023-06-22T10:49:51;7.22;;;5.82;;
57800;SDS011;43627;42.728;23.256;2023-06-22T10:52:17;7.20;;;4.88;;
57800;SDS011;43627;42.728;23.256;2023-06-22T10:54:44;7.70;;;5.25;;
57800;SDS011;43627;42.728;23.256;2023-06-22T10:57:11;7.07;;;5.40;;
57800;SDS011;43627;42.728;23.256;2023-06-22T10:59:37;5.90;;;4.90;;
57800;SDS011;43627;42.728;23.256;2023-06-22T11:02:04;7.22;;;5.53;;
57800;SDS011;43627;42.728;23.256;2023-06-22T11:04:31;7.45;;;5.05;;
57800;SDS011;43627;42.728;23.256;2023-06-22T11:06:58;7.68;;;5.28;;
57800;SDS011;43627;42.728;23.256;2023-06-22T11:09:25;6.93;;;5.00;;
57800;SDS011;43627;42.728;23.256;2023-06-22T11:11:55;4.95;;;4.05;;
57800;SDS011;43627;42.728;23.256;2023-06-22T11:14:26;7.20;;;5.05;;
57800;SDS011;43627;42.728;23.256;2023-06-22T11:16:54;6.45;;;5.10;;
57800;SDS011;43627;42.728;23.256;2023-06-22T11:19:21;5.78;;;5.10;;
57800;SDS011;43627;42.728;23.256;2023-06-22T11:21:47;5.65;;;4.63;;
57800;SDS011;43627;42.728;23.256;2023-06-22T11:24:14;6.07;;;4.90;;
57800;SDS011;43627;42.728;23.256;2023-06-22T11:26:42;7.88;;;5.22;;
57800;SDS011;43627;42.728;23.256;2023-06-22T11:29:09;5.55;;;4.88;;
57800;SDS011;43627;42.728;23.256;2023-06-22T11:31:49;6.93;;;5.22;;
57800;SDS011;43627;42.728;23.256;2023-06-22T11:34:16;6.70;;;4.95;;
57800;SDS011;43627;42.728;23.256;2023-06-22T11:36:43;6.55;;;4.95;;
57800;SDS011;43627;42.728;23.256;2023-06-22T11:39:10;5.70;;;4.90;;
57800;SDS011;43627;42.728;23.256;2023-06-22T11:41:38;8.00;;;5.85;;
57800;SDS011;43627;42.728;23.256;2023-06-22T11:44:04;6.78;;;5.55;;
57800;SDS011;43627;42.728;23.256;2023-06-22T11:46:31;9.95;;;5.40;;
57800;SDS011;43627;42.728;23.256;2023-06-22T11:48:59;5.90;;;4.78;;
57800;SDS011;43627;42.728;23.256;2023-06-22T11:51:26;5.40;;;4.60;;
57800;SDS011;43627;42.728;23.256;2023-06-22T11:53:53;6.88;;;5.40;;
57800;SDS011;43627;42.728;23.256;2023-06-22T11:56:20;6.35;;;5.32;;
57800;SDS011;43627;42.728;23.256;2023-06-22T11:58:47;7.18;;;5.15;;
57800;SDS011;43627;42.728;23.256;2023-06-22T12:01:14;6.75;;;4.93;;
57800;SDS011;43627;42.728;23.256;2023-06-22T12:03:41;6.85;;;5.00;;
57800;SDS011;43627;42.728;23.256;2023-06-22T12:06:10;6.55;;;4.90;;
57800;SDS011;43627;42.728;23.256;2023-06-22T12:08:37;9.93;;;6.40;;
57800;SDS011;43627;42.728;23.256;2023-06-22T12:11:06;12.43;;;7.30;;
57800;SDS011;43627;42.728;23.256;2023-06-22T12:13:35;8.35;;;6.13;;
57800;SDS011;43627;42.728;23.256;2023-06-22T12:16:02;9.80;;;6.25;;
57800;SDS011;43627;42.728;23.256;2023-06-22T12:18:28;13.50;;;7.63;;
57800;SDS011;43627;42.728;23.256;2023-06-22T12:20:55;7.75;;;6.07;;
57800;SDS011;43627;42.728;23.256;2023-06-22T12:23:22;15.20;;;9.38;;
57800;SDS011;43627;42.728;23.256;2023-06-22T12:25:48;13.77;;;8.50;;
57800;SDS011;43627;42.728;23.256;2023-06-22T12:28:15;9.20;;;5.97;;
57800;SDS011;43627;42.728;23.256;2023-06-22T12:30:42;10.52;;;4.50;;
57800;SDS011;43627;42.728;23.256;2023-06-22T12:33:08;10.02;;;4.28;;
57800;SDS011;43627;42.728;23.256;2023-06-22T12:35:35;4.60;;;3.00;;
57800;SDS011;43627;42.728;23.256;2023-06-22T12:38:02;4.80;;;3.03;;
57800;SDS011;43627;42.728;23.256;2023-06-22T12:40:29;5.80;;;3.00;;
57800;SDS011;43627;42.728;23.256;2023-06-22T12:42:56;5.20;;;3.22;;
57800;SDS011;43627;42.728;23.256;2023-06-22T12:45:23;4.70;;;3.45;;
57800;SDS011;43627;42.728;23.256;2023-06-22T12:47:51;5.15;;;2.65;;
57800;SDS011;43627;42.728;23.256;2023-06-22T12:50:18;10.52;;;3.33;;
57800;SDS011;43627;42.728;23.256;2023-06-22T12:52:44;6.82;;;3.10;;
57800;SDS011;43627;42.728;23.256;2023-06-22T12:55:11;8.38;;;3.50;;
57800;SDS011;43627;42.728;23.256;2023-06-22T12:57:38;4.22;;;2.83;;
57800;SDS011;43627;42.728;23.256;2023-06-22T13:00:05;11.15;;;4.10;;
57800;SDS011;43627;42.728;23.256;2023-06-22T13:02:34;6.95;;;3.80;;
57800;SDS011;43627;42.728;23.256;2023-06-22T13:05:01;6.25;;;4.38;;
57800;SDS011;43627;42.728;23.256;2023-06-22T13:07:29;6.25;;;3.83;;
57800;SDS011;43627;42.728;23.256;2023-06-22T13:09:56;5.65;;;3.92;;
57800;SDS011;43627;42.728;23.256;2023-06-22T13:12:22;8.60;;;4.38;;
57800;SDS011;43627;42.728;23.256;2023-06-22T13:14:49;5.43;;;4.30;;
57800;SDS011;43627;42.728;23.256;2023-06-22T13:17:16;7.38;;;4.47;;
57800;SDS011;43627;42.728;23.256;2023-06-22T13:19:43;4.90;;;3.92;;
57800;SDS011;43627;42.728;23.256;2023-06-22T13:22:29;11.00;;;4.20;;
57800;SDS011;43627;42.728;23.256;2023-06-22T13:24:56;7.45;;;4.32;;
57800;SDS011;43627;42.728;23.256;2023-06-22T13:27:23;7.13;;;4.85;;
57800;SDS011;43627;42.728;23.256;2023-06-22T13:29:50;7.85;;;4.80;;
57800;SDS011;43627;42.728;23.256;2023-06-22T13:32:17;12.52;;;4.90;;
57800;SDS011;43627;42.728;23.256;2023-06-22T13:34:44;9.45;;;4.55;;
57800;SDS011;43627;42.728;23.256;2023-06-22T13:37:10;8.15;;;4.72;;
57800;SDS011;43627;42.728;23.256;2023-06-22T13:39:37;9.00;;;5.63;;
57800;SDS011;43627;42.728;23.256;2023-06-22T13:42:04;12.02;;;5.30;;
57800;SDS011;43627;42.728;23.256;2023-06-22T13:44:32;8.73;;;5.47;;
57800;SDS011;43627;42.728;23.256;2023-06-22T13:46:59;10.20;;;5.93;;
57800;SDS011;43627;42.728;23.256;2023-06-22T13:49:26;12.85;;;6.28;;
57800;SDS011;43627;42.728;23.256;2023-06-22T13:51:53;15.20;;;7.47;;
57800;SDS011;43627;42.728;23.256;2023-06-22T13:54:19;9.95;;;6.82;;
57800;SDS011;43627;42.728;23.256;2023-06-22T13:56:49;13.15;;;6.97;;
57800;SDS011;43627;42.728;23.256;2023-06-22T13:59:16;7.93;;;5.70;;
57800;SDS011;43627;42.728;23.256;2023-06-22T14:01:43;14.70;;;8.52;;
57800;SDS011;43627;42.728;23.256;2023-06-22T14:04:10;11.85;;;6.72;;
57800;SDS011;43627;42.728;23.256;2023-06-22T14:06:37;8.23;;;6.30;;
57800;SDS011;43627;42.728;23.256;2023-06-22T14:09:04;12.07;;;6.18;;
57800;SDS011;43627;42.728;23.256;2023-06-22T14:11:31;7.78;;;6.13;;
57800;SDS011;43627;42.728;23.256;2023-06-22T14:13:58;9.50;;;6.70;;
57800;SDS011;43627;42.728;23.256;2023-06-22T14:16:25;10.07;;;6.68;;
57800;SDS011;43627;42.728;23.256;2023-06-22T14:18:52;11.93;;;6.95;;
57800;SDS011;43627;42.728;23.256;2023-06-22T14:21:22;9.35;;;6.65;;
57800;SDS011;43627;42.728;23.256;2023-06-22T14:23:49;12.00;;;7.20;;
57800;SDS011;43627;42.728;23.256;2023-06-22T14:26:16;9.32;;;6.57;;
57800;SDS011;43627;42.728;23.256;2023-06-22T14:28:46;18.17;;;9.10;;
57800;SDS011;43627;42.728;23.256;2023-06-22T14:31:16;11.82;;;6.97;;
57800;SDS011;43627;42.728;23.256;2023-06-22T14:33:48;11.32;;;7.35;;
57800;SDS011;43627;42.728;23.256;2023-06-22T14:36:16;14.03;;;7.93;;
57800;SDS011;43627;42.728;23.256;2023-06-22T14:38:44;11.85;;;7.80;;
57800;SDS011;43627;42.728;23.256;2023-06-22T14:41:12;12.20;;;7.25;;
57800;SDS011;43627;42.728;23.256;2023-06-22T14:43:49;10.00;;;6.80;;
57800;SDS011;43627;42.728;23.256;2023-06-22T14:46:19;10.00;;;6.63;;
57800;SDS011;43627;42.728;23.256;2023-06-22T14:48:46;12.30;;;7.78;;
57800;SDS011;43627;42.728;23.256;2023-06-22T14:51:13;8.95;;;5.78;;